Hua Hin, Thailand
Current Conditions -  °F | °C
As of 2:30 AM on Sunday 26 Oct 2014 (Local Time) from VTBU Reporting Station
Haze Haze  
Wind Chill: 25°   Ceiling: Unl
Heat Index: 26°   Visibility: 2.5mi
Dew Point: 24°   Wind: 3mph
Humidity: 94%   Direction: 340°NNW
Pressure: 29.83"   Gusts: NA
Location:  12.57°N, 99.95°E
Report Text: VTBU 251930Z 34003KT 4000 BR FEW020 SCT300 25/24 Q1010 A2985
Loading
Personal Weather Stations






























Interactive Weather Map
Tropical Storm Tracking
New forecast layout! Learn more

10-Day Weather Forecast

Advertisements
Track Severe Weather on mobile